sensor_id;sensor_type;location;lat;lon;timestamp;temperature;humidity
81869;DHT22;71320;52.252;13.382;2023-07-20T00:01:37;25.60;48.10
81869;DHT22;71320;52.252;13.382;2023-07-20T00:06:39;25.60;48.20
81869;DHT22;71320;52.252;13.382;2023-07-20T00:11:48;25.60;48.20
81869;DHT22;71320;52.252;13.382;2023-07-20T00:16:50;25.60;48.20
81869;DHT22;71320;52.252;13.382;2023-07-20T00:21:57;25.60;48.20
81869;DHT22;71320;52.252;13.382;2023-07-20T00:26:59;25.60;48.30
81869;DHT22;71320;52.252;13.382;2023-07-20T00:32:01;25.60;48.30
81869;DHT22;71320;52.252;13.382;2023-07-20T00:37:06;25.50;48.30
81869;DHT22;71320;52.252;13.382;2023-07-20T00:42:08;25.50;49.00
81869;DHT22;71320;52.252;13.382;2023-07-20T00:47:10;25.50;48.40
81869;DHT22;71320;52.252;13.382;2023-07-20T00:52:13;25.50;49.00
81869;DHT22;71320;52.252;13.382;2023-07-20T00:57:17;25.50;48.50
81869;DHT22;71320;52.252;13.382;2023-07-20T01:02:19;25.40;48.40
81869;DHT22;71320;52.252;13.382;2023-07-20T01:07:25;25.50;48.40
81869;DHT22;71320;52.252;13.382;2023-07-20T01:12:32;25.50;48.30
81869;DHT22;71320;52.252;13.382;2023-07-20T01:17:37;25.40;48.20
81869;DHT22;71320;52.252;13.382;2023-07-20T01:23:13;25.40;48.30
81869;DHT22;71320;52.252;13.382;2023-07-20T01:28:43;25.40;48.30
81869;DHT22;71320;52.252;13.382;2023-07-20T01:33:54;25.40;48.30
81869;DHT22;71320;52.252;13.382;2023-07-20T01:38:56;25.40;48.40
81869;DHT22;71320;52.252;13.382;2023-07-20T01:43:58;25.40;48.40
81869;DHT22;71320;52.252;13.382;2023-07-20T01:49:02;25.40;48.40
81869;DHT22;71320;52.252;13.382;2023-07-20T01:54:06;25.40;48.50
81869;DHT22;71320;52.252;13.382;2023-07-20T01:59:07;25.40;48.60
81869;DHT22;71320;52.252;13.382;2023-07-20T02:04:10;25.30;48.50
81869;DHT22;71320;52.252;13.382;2023-07-20T02:09:12;25.30;48.60
81869;DHT22;71320;52.252;13.382;2023-07-20T02:14:15;25.30;48.50
81869;DHT22;71320;52.252;13.382;2023-07-20T02:19:18;25.30;48.50
81869;DHT22;71320;52.252;13.382;2023-07-20T02:24:19;25.30;48.50
81869;DHT22;71320;52.252;13.382;2023-07-20T02:29:21;25.30;48.50
81869;DHT22;71320;52.252;13.382;2023-07-20T02:34:25;25.30;48.40
81869;DHT22;71320;52.252;13.382;2023-07-20T02:39:27;25.30;48.40
81869;DHT22;71320;52.252;13.382;2023-07-20T02:44:28;25.30;48.50
81869;DHT22;71320;52.252;13.382;2023-07-20T02:49:31;25.30;48.60
81869;DHT22;71320;52.252;13.382;2023-07-20T02:54:34;25.30;48.60
81869;DHT22;71320;52.252;13.382;2023-07-20T02:59:35;25.20;48.60
81869;DHT22;71320;52.252;13.382;2023-07-20T03:04:38;25.20;48.70
81869;DHT22;71320;52.252;13.382;2023-07-20T03:09:40;25.20;48.80
81869;DHT22;71320;52.252;13.382;2023-07-20T03:14:41;25.20;48.80
81869;DHT22;71320;52.252;13.382;2023-07-20T03:19:44;25.20;48.90
81869;DHT22;71320;52.252;13.382;2023-07-20T03:24:46;25.20;49.00
81869;DHT22;71320;52.252;13.382;2023-07-20T03:29:47;25.20;48.80
81869;DHT22;71320;52.252;13.382;2023-07-20T03:34:51;25.20;48.90
81869;DHT22;71320;52.252;13.382;2023-07-20T03:39:53;25.20;49.00
81869;DHT22;71320;52.252;13.382;2023-07-20T03:44:55;25.20;49.10
81869;DHT22;71320;52.252;13.382;2023-07-20T03:49:58;25.10;49.20
81869;DHT22;71320;52.252;13.382;2023-07-20T03:54:59;25.10;49.70
81869;DHT22;71320;52.252;13.382;2023-07-20T04:00:01;25.10;49.20
81869;DHT22;71320;52.252;13.382;2023-07-20T04:05:14;25.10;49.10
81869;DHT22;71320;52.252;13.382;2023-07-20T04:10:16;25.10;49.20
81869;DHT22;71320;52.252;13.382;2023-07-20T04:15:18;25.10;49.10
81869;DHT22;71320;52.252;13.382;2023-07-20T04:20:21;25.10;49.10
81869;DHT22;71320;52.252;13.382;2023-07-20T04:25:23;25.10;49.10
81869;DHT22;71320;52.252;13.382;2023-07-20T04:30:25;25.10;49.20
81869;DHT22;71320;52.252;13.382;2023-07-20T04:35:46;25.10;49.10
81869;DHT22;71320;52.252;13.382;2023-07-20T04:40:50;25.10;49.10
81869;DHT22;71320;52.252;13.382;2023-07-20T04:45:52;25.10;49.20
81869;DHT22;71320;52.252;13.382;2023-07-20T04:50:55;25.10;49.10
81869;DHT22;71320;52.252;13.382;2023-07-20T04:55:57;25.00;49.10
81869;DHT22;71320;52.252;13.382;2023-07-20T05:00:59;25.10;49.20
81869;DHT22;71320;52.252;13.382;2023-07-20T05:06:03;25.00;49.20
81869;DHT22;71320;52.252;13.382;2023-07-20T05:11:04;24.80;50.90
81869;DHT22;71320;52.252;13.382;2023-07-20T05:16:07;24.60;51.60
81869;DHT22;71320;52.252;13.382;2023-07-20T05:21:10;24.60;52.10
81869;DHT22;71320;52.252;13.382;2023-07-20T05:26:12;24.50;52.50
81869;DHT22;71320;52.252;13.382;2023-07-20T05:31:13;24.40;52.90
81869;DHT22;71320;52.252;13.382;2023-07-20T05:36:16;24.40;53.30
81869;DHT22;71320;52.252;13.382;2023-07-20T05:41:18;24.40;53.70
81869;DHT22;71320;52.252;13.382;2023-07-20T05:46:19;24.30;53.90
81869;DHT22;71320;52.252;13.382;2023-07-20T05:51:22;24.30;54.10
81869;DHT22;71320;52.252;13.382;2023-07-20T05:56:25;24.40;54.10
81869;DHT22;71320;52.252;13.382;2023-07-20T06:01:27;24.40;54.00
81869;DHT22;71320;52.252;13.382;2023-07-20T06:06:30;24.50;54.10
81869;DHT22;71320;52.252;13.382;2023-07-20T06:11:31;24.50;53.80
81869;DHT22;71320;52.252;13.382;2023-07-20T06:16:33;24.50;53.60
81869;DHT22;71320;52.252;13.382;2023-07-20T06:21:36;24.40;53.60
81869;DHT22;71320;52.252;13.382;2023-07-20T06:26:38;24.50;53.80
81869;DHT22;71320;52.252;13.382;2023-07-20T06:31:40;24.50;53.80
81869;DHT22;71320;52.252;13.382;2023-07-20T06:36:43;24.60;54.00
81869;DHT22;71320;52.252;13.382;2023-07-20T06:41:44;24.60;54.50
81869;DHT22;71320;52.252;13.382;2023-07-20T06:46:46;24.70;54.60
81869;DHT22;71320;52.252;13.382;2023-07-20T06:51:49;24.70;53.80
81869;DHT22;71320;52.252;13.382;2023-07-20T06:56:51;24.70;53.90
81869;DHT22;71320;52.252;13.382;2023-07-20T07:01:52;24.70;53.70
81869;DHT22;71320;52.252;13.382;2023-07-20T07:06:55;24.70;53.60
81869;DHT22;71320;52.252;13.382;2023-07-20T07:11:57;24.70;53.40
81869;DHT22;71320;52.252;13.382;2023-07-20T07:16:59;24.70;53.30
81869;DHT22;71320;52.252;13.382;2023-07-20T07:22:02;24.70;53.10
81869;DHT22;71320;52.252;13.382;2023-07-20T07:27:04;24.80;52.90
81869;DHT22;71320;52.252;13.382;2023-07-20T07:32:07;24.90;52.80
81869;DHT22;71320;52.252;13.382;2023-07-20T07:37:12;25.00;53.40
81869;DHT22;71320;52.252;13.382;2023-07-20T07:42:13;25.10;52.70
81869;DHT22;71320;52.252;13.382;2023-07-20T07:47:15;25.10;52.40
81869;DHT22;71320;52.252;13.382;2023-07-20T07:52:18;25.10;51.80
81869;DHT22;71320;52.252;13.382;2023-07-20T07:57:20;25.10;51.50
81869;DHT22;71320;52.252;13.382;2023-07-20T08:02:21;25.10;51.20
81869;DHT22;71320;52.252;13.382;2023-07-20T08:07:24;25.10;51.10
81869;DHT22;71320;52.252;13.382;2023-07-20T08:12:26;25.20;50.90
81869;DHT22;71320;52.252;13.382;2023-07-20T08:17:28;25.40;50.90
81869;DHT22;71320;52.252;13.382;2023-07-20T08:22:31;25.60;50.60
81869;DHT22;71320;52.252;13.382;2023-07-20T08:27:32;25.80;50.40
81869;DHT22;71320;52.252;13.382;2023-07-20T08:32:34;25.90;50.60
81869;DHT22;71320;52.252;13.382;2023-07-20T08:37:37;26.00;50.30
81869;DHT22;71320;52.252;13.382;2023-07-20T08:42:38;26.10;50.40
81869;DHT22;71320;52.252;13.382;2023-07-20T08:47:41;26.10;50.70
81869;DHT22;71320;52.252;13.382;2023-07-20T08:52:46;26.20;50.80
81869;DHT22;71320;52.252;13.382;2023-07-20T08:57:49;26.20;50.70
81869;DHT22;71320;52.252;13.382;2023-07-20T09:02:53;26.30;50.80
81869;DHT22;71320;52.252;13.382;2023-07-20T09:07:56;26.30;50.80
81869;DHT22;71320;52.252;13.382;2023-07-20T09:12:58;26.40;50.90
81869;DHT22;71320;52.252;13.382;2023-07-20T09:18:01;26.50;51.20
81869;DHT22;71320;52.252;13.382;2023-07-20T09:23:05;26.50;51.20
81869;DHT22;71320;52.252;13.382;2023-07-20T09:28:07;26.50;51.00
81869;DHT22;71320;52.252;13.382;2023-07-20T09:33:18;26.50;51.10
81869;DHT22;71320;52.252;13.382;2023-07-20T09:38:22;26.60;51.10
81869;DHT22;71320;52.252;13.382;2023-07-20T09:43:23;26.60;51.30
81869;DHT22;71320;52.252;13.382;2023-07-20T09:48:25;26.60;51.40
81869;DHT22;71320;52.252;13.382;2023-07-20T09:53:30;26.70;51.50
81869;DHT22;71320;52.252;13.382;2023-07-20T09:58:33;26.70;51.00
81869;DHT22;71320;52.252;13.382;2023-07-20T10:03:37;26.70;50.90
81869;DHT22;71320;52.252;13.382;2023-07-20T10:08:41;26.70;50.90
81869;DHT22;71320;52.252;13.382;2023-07-20T10:13:44;26.80;51.40
81869;DHT22;71320;52.252;13.382;2023-07-20T10:18:51;26.80;50.90
81869;DHT22;71320;52.252;13.382;2023-07-20T10:23:54;26.90;51.20
81869;DHT22;71320;52.252;13.382;2023-07-20T10:28:57;26.90;51.30
81869;DHT22;71320;52.252;13.382;2023-07-20T10:33:59;26.90;51.10
81869;DHT22;71320;52.252;13.382;2023-07-20T10:39:03;26.90;51.00
81869;DHT22;71320;52.252;13.382;2023-07-20T10:44:06;27.00;51.50
81869;DHT22;71320;52.252;13.382;2023-07-20T10:49:09;26.80;51.30
81869;DHT22;71320;52.252;13.382;2023-07-20T10:54:34;26.80;51.30
81869;DHT22;71320;52.252;13.382;2023-07-20T10:59:37;26.70;51.00
81869;DHT22;71320;52.252;13.382;2023-07-20T11:04:39;26.70;50.90
81869;DHT22;71320;52.252;13.382;2023-07-20T11:09:42;26.70;50.80
81869;DHT22;71320;52.252;13.382;2023-07-20T11:14:55;26.70;50.70
81869;DHT22;71320;52.252;13.382;2023-07-20T11:19:58;26.70;50.50
81869;DHT22;71320;52.252;13.382;2023-07-20T11:25:02;26.70;49.80
81869;DHT22;71320;52.252;13.382;2023-07-20T11:30:15;26.50;48.90
81869;DHT22;71320;52.252;13.382;2023-07-20T11:35:17;26.40;47.80
81869;DHT22;71320;52.252;13.382;2023-07-20T11:40:20;26.40;47.80
81869;DHT22;71320;52.252;13.382;2023-07-20T11:45:21;26.40;47.90
81869;DHT22;71320;52.252;13.382;2023-07-20T11:50:23;26.40;47.60
81869;DHT22;71320;52.252;13.382;2023-07-20T11:55:26;26.40;47.70
81869;DHT22;71320;52.252;13.382;2023-07-20T12:00:28;26.40;47.60
81869;DHT22;71320;52.252;13.382;2023-07-20T12:05:30;26.40;46.90
81869;DHT22;71320;52.252;13.382;2023-07-20T12:10:33;26.40;47.00
81869;DHT22;71320;52.252;13.382;2023-07-20T12:15:35;26.40;47.00
81869;DHT22;71320;52.252;13.382;2023-07-20T12:20:37;26.40;46.40
81869;DHT22;71320;52.252;13.382;2023-07-20T12:25:42;26.30;46.90
81869;DHT22;71320;52.252;13.382;2023-07-20T12:30:45;26.20;46.30
81869;DHT22;71320;52.252;13.382;2023-07-20T12:35:47;26.20;46.40
81869;DHT22;71320;52.252;13.382;2023-07-20T12:40:50;26.30;46.60
81869;DHT22;71320;52.252;13.382;2023-07-20T12:45:52;26.30;46.70
81869;DHT22;71320;52.252;13.382;2023-07-20T12:50:55;26.30;46.70
81869;DHT22;71320;52.252;13.382;2023-07-20T12:55:58;26.30;46.30
81869;DHT22;71320;52.252;13.382;2023-07-20T13:01:00;26.30;46.10
81869;DHT22;71320;52.252;13.382;2023-07-20T13:06:02;26.20;46.10
81869;DHT22;71320;52.252;13.382;2023-07-20T13:11:06;26.30;46.40
81869;DHT22;71320;52.252;13.382;2023-07-20T13:16:07;26.40;46.70
81869;DHT22;71320;52.252;13.382;2023-07-20T13:21:09;26.40;45.50
81869;DHT22;71320;52.252;13.382;2023-07-20T13:26:13;26.40;45.30
81869;DHT22;71320;52.252;13.382;2023-07-20T13:31:15;26.30;44.50
81869;DHT22;71320;52.252;13.382;2023-07-20T13:36:17;26.30;44.00
81869;DHT22;71320;52.252;13.382;2023-07-20T13:41:20;26.30;44.10
81869;DHT22;71320;52.252;13.382;2023-07-20T13:46:23;26.30;44.30
81869;DHT22;71320;52.252;13.382;2023-07-20T13:51:24;26.40;44.10
81869;DHT22;71320;52.252;13.382;2023-07-20T13:56:28;26.30;43.50
81869;DHT22;71320;52.252;13.382;2023-07-20T14:01:29;26.40;44.50
81869;DHT22;71320;52.252;13.382;2023-07-20T14:06:33;26.40;43.90
81869;DHT22;71320;52.252;13.382;2023-07-20T14:11:36;26.40;44.00
81869;DHT22;71320;52.252;13.382;2023-07-20T14:16:38;26.30;43.60
81869;DHT22;71320;52.252;13.382;2023-07-20T14:21:39;26.30;44.20
81869;DHT22;71320;52.252;13.382;2023-07-20T14:26:42;26.20;43.10
81869;DHT22;71320;52.252;13.382;2023-07-20T14:31:44;26.10;42.60
81869;DHT22;71320;52.252;13.382;2023-07-20T14:36:45;26.10;42.40
81869;DHT22;71320;52.252;13.382;2023-07-20T14:41:50;26.10;42.50
81869;DHT22;71320;52.252;13.382;2023-07-20T14:46:51;26.10;42.10
81869;DHT22;71320;52.252;13.382;2023-07-20T14:51:53;26.00;41.70
81869;DHT22;71320;52.252;13.382;2023-07-20T14:56:56;26.10;41.50
81869;DHT22;71320;52.252;13.382;2023-07-20T15:01:57;26.00;40.90
81869;DHT22;71320;52.252;13.382;2023-07-20T15:06:59;26.00;41.20
81869;DHT22;71320;52.252;13.382;2023-07-20T15:12:02;26.00;41.30
81869;DHT22;71320;52.252;13.382;2023-07-20T15:17:04;26.00;41.20
81869;DHT22;71320;52.252;13.382;2023-07-20T15:22:06;25.90;41.20
81869;DHT22;71320;52.252;13.382;2023-07-20T15:27:10;25.90;40.80
81869;DHT22;71320;52.252;13.382;2023-07-20T15:32:11;25.90;40.70
81869;DHT22;71320;52.252;13.382;2023-07-20T15:37:13;25.90;41.00
81869;DHT22;71320;52.252;13.382;2023-07-20T15:42:16;25.80;40.60
81869;DHT22;71320;52.252;13.382;2023-07-20T15:47:18;25.90;40.60
81869;DHT22;71320;52.252;13.382;2023-07-20T15:52:19;25.80;40.50
81869;DHT22;71320;52.252;13.382;2023-07-20T15:57:22;25.80;40.30
81869;DHT22;71320;52.252;13.382;2023-07-20T16:02:24;25.70;40.20
81869;DHT22;71320;52.252;13.382;2023-07-20T16:07:26;25.70;39.80
81869;DHT22;71320;52.252;13.382;2023-07-20T16:12:29;25.80;39.90
81869;DHT22;71320;52.252;13.382;2023-07-20T16:17:32;25.70;40.20
81869;DHT22;71320;52.252;13.382;2023-07-20T16:22:33;25.70;39.90
81869;DHT22;71320;52.252;13.382;2023-07-20T16:27:36;25.60;39.70
81869;DHT22;71320;52.252;13.382;2023-07-20T16:32:40;25.60;40.10
81869;DHT22;71320;52.252;13.382;2023-07-20T16:37:43;25.60;40.20
81869;DHT22;71320;52.252;13.382;2023-07-20T16:42:46;25.70;40.50
81869;DHT22;71320;52.252;13.382;2023-07-20T16:47:48;25.60;40.20
81869;DHT22;71320;52.252;13.382;2023-07-20T16:52:49;25.60;40.30
81869;DHT22;71320;52.252;13.382;2023-07-20T16:57:53;25.60;40.30
81869;DHT22;71320;52.252;13.382;2023-07-20T17:02:54;25.50;39.60
81869;DHT22;71320;52.252;13.382;2023-07-20T17:07:56;25.50;39.70
81869;DHT22;71320;52.252;13.382;2023-07-20T17:12:59;25.50;39.10
81869;DHT22;71320;52.252;13.382;2023-07-20T17:18:01;25.50;39.10
81869;DHT22;71320;52.252;13.382;2023-07-20T17:23:02;25.40;39.30
81869;DHT22;71320;52.252;13.382;2023-07-20T17:28:05;25.40;39.20
81869;DHT22;71320;52.252;13.382;2023-07-20T17:33:07;25.50;40.00
81869;DHT22;71320;52.252;13.382;2023-07-20T17:38:10;25.50;39.60
81869;DHT22;71320;52.252;13.382;2023-07-20T17:43:13;25.50;39.60
81869;DHT22;71320;52.252;13.382;2023-07-20T17:48:15;25.40;39.60
81869;DHT22;71320;52.252;13.382;2023-07-20T17:53:17;25.40;39.60
81869;DHT22;71320;52.252;13.382;2023-07-20T17:58:20;25.30;39.50
81869;DHT22;71320;52.252;13.382;2023-07-20T18:03:22;25.30;40.10
81869;DHT22;71320;52.252;13.382;2023-07-20T18:08:24;25.30;39.20
81869;DHT22;71320;52.252;13.382;2023-07-20T18:13:27;25.20;39.50
81869;DHT22;71320;52.252;13.382;2023-07-20T18:18:29;25.20;39.50
81869;DHT22;71320;52.252;13.382;2023-07-20T18:23:31;25.20;39.50
81869;DHT22;71320;52.252;13.382;2023-07-20T18:28:34;25.10;39.40
81869;DHT22;71320;52.252;13.382;2023-07-20T18:33:36;25.10;39.40
81869;DHT22;71320;52.252;13.382;2023-07-20T18:38:37;25.00;39.70
81869;DHT22;71320;52.252;13.382;2023-07-20T18:43:40;25.00;39.80
81869;DHT22;71320;52.252;13.382;2023-07-20T18:48:42;24.90;39.70
81869;DHT22;71320;52.252;13.382;2023-07-20T18:53:43;24.90;39.90
81869;DHT22;71320;52.252;13.382;2023-07-20T18:58:47;24.80;40.00
81869;DHT22;71320;52.252;13.382;2023-07-20T19:03:49;24.80;40.10
81869;DHT22;71320;52.252;13.382;2023-07-20T19:08:51;24.80;40.10
81869;DHT22;71320;52.252;13.382;2023-07-20T19:13:54;24.70;40.10
81869;DHT22;71320;52.252;13.382;2023-07-20T19:18:55;24.70;40.10
81869;DHT22;71320;52.252;13.382;2023-07-20T19:23:57;24.80;40.20
81869;DHT22;71320;52.252;13.382;2023-07-20T19:29:00;24.90;40.30
81869;DHT22;71320;52.252;13.382;2023-07-20T19:34:02;24.90;40.30
81869;DHT22;71320;52.252;13.382;2023-07-20T19:39:03;24.90;40.30
81869;DHT22;71320;52.252;13.382;2023-07-20T19:44:07;25.00;40.40
81869;DHT22;71320;52.252;13.382;2023-07-20T19:49:09;25.00;40.60
81869;DHT22;71320;52.252;13.382;2023-07-20T19:54:11;25.00;40.60
81869;DHT22;71320;52.252;13.382;2023-07-20T19:59:14;24.90;40.70
81869;DHT22;71320;52.252;13.382;2023-07-20T20:04:16;24.90;40.80
81869;DHT22;71320;52.252;13.382;2023-07-20T20:09:20;24.90;41.00
81869;DHT22;71320;52.252;13.382;2023-07-20T20:14:23;24.90;41.10
81869;DHT22;71320;52.252;13.382;2023-07-20T20:19:24;25.00;41.40
81869;DHT22;71320;52.252;13.382;2023-07-20T20:24:26;24.90;41.40
81869;DHT22;71320;52.252;13.382;2023-07-20T20:29:29;24.90;41.60
81869;DHT22;71320;52.252;13.382;2023-07-20T20:34:31;24.90;41.70
81869;DHT22;71320;52.252;13.382;2023-07-20T20:39:32;24.90;41.80
81869;DHT22;71320;52.252;13.382;2023-07-20T20:44:35;24.90;41.80
81869;DHT22;71320;52.252;13.382;2023-07-20T20:49:37;24.90;41.90
81869;DHT22;71320;52.252;13.382;2023-07-20T20:54:45;24.90;41.80
81869;DHT22;71320;52.252;13.382;2023-07-20T20:59:48;24.90;41.80
81869;DHT22;71320;52.252;13.382;2023-07-20T21:04:50;24.90;41.90
81869;DHT22;71320;52.252;13.382;2023-07-20T21:09:52;24.80;41.90
81869;DHT22;71320;52.252;13.382;2023-07-20T21:14:56;24.80;41.70
81869;DHT22;71320;52.252;13.382;2023-07-20T21:19:59;24.80;41.70
81869;DHT22;71320;52.252;13.382;2023-07-20T21:25:00;24.80;41.70
81869;DHT22;71320;52.252;13.382;2023-07-20T21:30:04;24.80;41.80
81869;DHT22;71320;52.252;13.382;2023-07-20T21:35:07;24.80;41.90
81869;DHT22;71320;52.252;13.382;2023-07-20T21:40:09;24.80;41.90
81869;DHT22;71320;52.252;13.382;2023-07-20T21:45:12;24.70;41.90
81869;DHT22;71320;52.252;13.382;2023-07-20T21:50:14;24.70;41.80
81869;DHT22;71320;52.252;13.382;2023-07-20T21:55:16;24.70;41.80
81869;DHT22;71320;52.252;13.382;2023-07-20T22:00:19;24.70;41.90
81869;DHT22;71320;52.252;13.382;2023-07-20T22:05:23;24.70;41.90
81869;DHT22;71320;52.252;13.382;2023-07-20T22:10:26;24.70;41.90
81869;DHT22;71320;52.252;13.382;2023-07-20T22:15:30;24.60;42.40
81869;DHT22;71320;52.252;13.382;2023-07-20T22:20:31;24.60;41.80
81869;DHT22;71320;52.252;13.382;2023-07-20T22:25:34;24.60;41.80
81869;DHT22;71320;52.252;13.382;2023-07-20T22:30:37;24.60;41.80
81869;DHT22;71320;52.252;13.382;2023-07-20T22:35:40;24.60;41.80
81869;DHT22;71320;52.252;13.382;2023-07-20T22:40:41;24.60;41.80
81869;DHT22;71320;52.252;13.382;2023-07-20T22:45:44;24.60;41.80
81869;DHT22;71320;52.252;13.382;2023-07-20T22:50:46;24.60;41.90
81869;DHT22;71320;52.252;13.382;2023-07-20T22:55:48;24.60;41.90
81869;DHT22;71320;52.252;13.382;2023-07-20T23:00:51;24.50;41.80
81869;DHT22;71320;52.252;13.382;2023-07-20T23:05:53;24.50;41.80
81869;DHT22;71320;52.252;13.382;2023-07-20T23:10:54;24.50;41.80
81869;DHT22;71320;52.252;13.382;2023-07-20T23:15:58;24.50;41.80
81869;DHT22;71320;52.252;13.382;2023-07-20T23:20:59;24.50;41.80
81869;DHT22;71320;52.252;13.382;2023-07-20T23:26:02;24.40;41.70
81869;DHT22;71320;52.252;13.382;2023-07-20T23:31:05;24.40;41.70
81869;DHT22;71320;52.252;13.382;2023-07-20T23:36:07;24.40;41.80
81869;DHT22;71320;52.252;13.382;2023-07-20T23:41:09;24.40;41.70
81869;DHT22;71320;52.252;13.382;2023-07-20T23:46:12;24.40;41.70
81869;DHT22;71320;52.252;13.382;2023-07-20T23:51:15;24.30;41.70
81869;DHT22;71320;52.252;13.382;2023-07-20T23:56:19;24.40;41.80
